createdAt,value
2018-03-22T00:01:32.339Z,30.07
2018-03-22T00:04:00.506Z,31.53
2018-03-22T00:06:28.645Z,28.50
2018-03-22T00:08:56.780Z,34.23
2018-03-22T00:11:24.919Z,28.43
2018-03-22T00:13:53.103Z,31.23
2018-03-22T00:16:21.316Z,34.57
2018-03-22T00:18:49.442Z,32.33
2018-03-22T00:21:17.581Z,30.50
2018-03-22T00:23:45.730Z,32.40
2018-03-22T00:26:13.893Z,31.27
2018-03-22T00:28:42.023Z,35.30
2018-03-22T00:31:10.172Z,32.63
2018-03-22T00:33:38.306Z,32.77
2018-03-22T00:36:06.532Z,29.40
2018-03-22T00:38:34.694Z,31.10
2018-03-22T00:41:02.830Z,34.70
2018-03-22T00:43:30.957Z,33.80
2018-03-22T00:45:59.077Z,34.30
2018-03-22T00:48:27.348Z,34.50
2018-03-22T00:50:55.500Z,39.40
2018-03-22T00:53:23.644Z,36.03
2018-03-22T00:55:51.771Z,39.93
2018-03-22T00:58:19.907Z,36.10
2018-03-22T01:00:48.064Z,35.13
2018-03-22T01:03:16.193Z,34.50
2018-03-22T01:05:44.322Z,36.17
2018-03-22T01:08:12.472Z,38.77
2018-03-22T01:10:40.633Z,40.00
2018-03-22T01:13:08.788Z,34.73
2018-03-22T01:15:36.903Z,37.77
2018-03-22T01:18:05.058Z,35.53
2018-03-22T01:20:33.193Z,39.73
2018-03-22T01:23:01.314Z,34.80
2018-03-22T01:25:29.445Z,35.30
2018-03-22T01:27:57.626Z,38.03
2018-03-22T01:30:36.576Z,40.30
2018-03-22T01:33:04.723Z,38.37
2018-03-22T01:35:32.856Z,32.07
2018-03-22T01:38:00.992Z,39.57
2018-03-22T01:40:29.123Z,32.07
2018-03-22T01:42:57.267Z,34.67
2018-03-22T01:45:25.391Z,36.00
2018-03-22T01:47:53.521Z,39.07
2018-03-22T01:50:21.718Z,35.83
2018-03-22T01:53:01.563Z,33.30
2018-03-22T01:55:29.735Z,32.10
2018-03-22T01:57:57.834Z,31.83
2018-03-22T02:00:25.984Z,35.47
2018-03-22T02:02:54.173Z,33.13
2018-03-22T02:05:22.359Z,31.73
2018-03-22T02:07:50.491Z,36.13
2018-03-22T02:10:18.636Z,36.63
2018-03-22T02:12:46.793Z,36.63
2018-03-22T02:15:14.916Z,34.43
2018-03-22T02:17:43.078Z,33.40
2018-03-22T02:20:11.222Z,34.13
2018-03-22T02:22:39.405Z,33.73
2018-03-22T02:25:07.567Z,32.03
2018-03-22T02:27:35.730Z,33.27
2018-03-22T02:30:03.880Z,33.80
2018-03-22T02:32:32.009Z,27.77
2018-03-22T02:35:00.129Z,26.97
2018-03-22T02:37:28.308Z,32.47
2018-03-22T02:39:56.436Z,30.70
2018-03-22T02:42:24.554Z,33.23
2018-03-22T02:44:52.705Z,28.63
2018-03-22T02:47:20.838Z,32.77
2018-03-22T02:49:48.980Z,31.13
2018-03-22T02:52:17.111Z,34.63
2018-03-22T02:54:45.240Z,33.33
2018-03-22T02:57:13.384Z,33.07
2018-03-22T02:59:41.507Z,27.70
2018-03-22T03:02:09.634Z,31.33
2018-03-22T03:04:37.776Z,31.10
2018-03-22T03:07:05.931Z,32.60
2018-03-22T03:09:34.056Z,29.90
2018-03-22T03:12:02.198Z,31.53
2018-03-22T03:14:30.318Z,32.53
2018-03-22T03:16:58.494Z,30.53
2018-03-22T03:19:26.674Z,26.60
2018-03-22T03:21:54.816Z,29.47
2018-03-22T03:24:22.949Z,29.47
2018-03-22T03:26:51.077Z,32.13
2018-03-22T03:29:19.201Z,28.23
2018-03-22T03:31:47.365Z,27.67
2018-03-22T03:34:15.628Z,28.93
2018-03-22T03:36:43.751Z,29.13
2018-03-22T03:39:11.892Z,33.20
2018-03-22T03:41:40.103Z,31.30
2018-03-22T03:44:08.250Z,30.83
2018-03-22T03:46:36.388Z,28.10
2018-03-22T03:49:04.530Z,30.13
2018-03-22T03:51:32.674Z,32.63
2018-03-22T03:54:00.816Z,34.80
2018-03-22T03:56:28.949Z,33.17
2018-03-22T03:58:57.106Z,36.57
2018-03-22T04:01:25.252Z,36.80
2018-03-22T04:03:53.378Z,35.43
2018-03-22T04:06:21.513Z,31.47
2018-03-22T04:08:49.672Z,34.23
2018-03-22T04:11:17.835Z,35.77
2018-03-22T04:13:45.992Z,38.43
2018-03-22T04:16:14.123Z,34.63
2018-03-22T04:18:42.262Z,35.13
2018-03-22T04:21:10.398Z,35.70
2018-03-22T04:23:38.543Z,32.90
2018-03-22T04:26:06.674Z,38.63
2018-03-22T04:28:34.816Z,34.87
2018-03-22T04:31:02.958Z,36.00
2018-03-22T04:33:31.596Z,33.40
2018-03-22T04:36:00.511Z,35.23
2018-03-22T04:38:28.666Z,33.03
2018-03-22T04:40:56.823Z,38.50
2018-03-22T04:43:24.938Z,38.97
2018-03-22T04:45:59.447Z,36.50
2018-03-22T04:48:27.559Z,36.70
2018-03-22T04:50:55.702Z,36.47
2018-03-22T04:53:24.132Z,34.33
2018-03-22T04:55:52.307Z,39.50
2018-03-22T04:58:20.465Z,39.27
2018-03-22T05:00:48.637Z,39.77
2018-03-22T05:03:16.882Z,40.30
2018-03-22T05:05:45.075Z,39.43
2018-03-22T05:08:13.427Z,38.83
2018-03-22T05:10:41.701Z,41.40
2018-03-22T05:13:10.149Z,37.90
2018-03-22T05:15:38.289Z,38.30
2018-03-22T05:18:06.415Z,41.97
2018-03-22T05:20:34.604Z,43.03
2018-03-22T05:23:02.736Z,44.37
2018-03-22T05:25:30.878Z,45.67
2018-03-22T05:27:59.006Z,43.43
2018-03-22T05:30:27.227Z,43.47
2018-03-22T05:32:55.360Z,50.90
2018-03-22T05:35:23.507Z,42.87
2018-03-22T05:37:51.650Z,42.03
2018-03-22T05:40:19.806Z,42.70
2018-03-22T05:42:47.952Z,49.53
2018-03-22T05:45:16.089Z,45.67
2018-03-22T05:47:44.250Z,45.67
2018-03-22T05:50:12.387Z,42.80
2018-03-22T05:52:40.534Z,37.30
2018-03-22T05:55:09.666Z,40.20
2018-03-22T05:57:37.803Z,40.60
2018-03-22T06:00:05.927Z,42.27
2018-03-22T06:02:34.067Z,45.50
2018-03-22T06:05:02.193Z,37.53
2018-03-22T06:07:30.396Z,45.57
2018-03-22T06:09:58.548Z,34.37
2018-03-22T06:12:26.676Z,38.73
2018-03-22T06:14:54.834Z,40.03
2018-03-22T06:17:22.972Z,44.17
2018-03-22T06:19:51.119Z,39.43
2018-03-22T06:22:19.288Z,42.73
2018-03-22T06:24:47.420Z,38.90
2018-03-22T06:27:15.574Z,36.07
2018-03-22T06:29:43.723Z,35.87
2018-03-22T06:32:11.834Z,37.60
2018-03-22T06:34:39.995Z,40.67
2018-03-22T06:37:08.125Z,41.07
2018-03-22T06:39:36.295Z,39.73
2018-03-22T06:42:04.444Z,36.33
2018-03-22T06:44:32.580Z,37.63
2018-03-22T06:47:00.707Z,37.37
2018-03-22T06:49:28.874Z,36.53
2018-03-22T06:51:57.031Z,41.83
2018-03-22T06:54:25.173Z,37.90
2018-03-22T06:56:53.446Z,37.00
2018-03-22T06:59:21.607Z,42.77
2018-03-22T07:01:49.731Z,36.47
2018-03-22T07:04:17.875Z,36.33
2018-03-22T07:06:46.057Z,41.73
2018-03-22T07:09:14.189Z,44.80
2018-03-22T07:11:42.345Z,42.43
2018-03-22T07:14:10.522Z,43.33
2018-03-22T07:16:38.645Z,40.37
2018-03-22T07:19:06.776Z,40.17
2018-03-22T07:21:34.939Z,37.97
2018-03-22T07:24:03.111Z,41.80
2018-03-22T07:26:31.275Z,45.57
2018-03-22T07:28:59.490Z,38.80
2018-03-22T07:31:27.659Z,40.80
2018-03-22T07:33:55.798Z,38.87
2018-03-22T07:36:24.070Z,40.77
2018-03-22T07:38:52.195Z,39.17
2018-03-22T07:41:20.359Z,37.90
2018-03-22T07:43:48.498Z,38.27
2018-03-22T07:46:16.647Z,35.23
2018-03-22T07:48:44.790Z,41.50
2018-03-22T07:51:12.924Z,34.27
2018-03-22T07:53:41.164Z,35.70
2018-03-22T07:56:09.335Z,35.70
2018-03-22T07:58:37.517Z,34.50
2018-03-22T08:01:05.638Z,34.93
2018-03-22T08:03:33.821Z,37.90
2018-03-22T08:06:01.959Z,34.73
2018-03-22T08:08:30.131Z,34.67
2018-03-22T08:10:58.274Z,36.07
2018-03-22T08:13:26.431Z,37.23
2018-03-22T08:15:54.591Z,37.27
2018-03-22T08:18:22.726Z,32.70
2018-03-22T08:20:51.809Z,34.40
2018-03-22T08:23:20.271Z,33.67
2018-03-22T08:25:48.447Z,37.13
2018-03-22T08:28:16.597Z,37.33
2018-03-22T08:30:44.739Z,37.63
2018-03-22T08:33:12.863Z,39.73
2018-03-22T08:35:41.006Z,36.47
2018-03-22T08:38:09.139Z,41.83
2018-03-22T08:40:37.275Z,38.77
2018-03-22T08:43:05.447Z,37.60
2018-03-22T08:45:33.572Z,37.00
2018-03-22T08:48:01.779Z,35.03
2018-03-22T08:50:29.901Z,36.90
2018-03-22T08:52:58.044Z,38.33
2018-03-22T08:55:26.239Z,39.13
2018-03-22T08:57:54.407Z,40.33
2018-03-22T09:00:22.541Z,36.03
2018-03-22T09:02:50.696Z,37.80
2018-03-22T09:05:18.844Z,38.60
2018-03-22T09:07:46.967Z,33.50
2018-03-22T09:10:15.138Z,32.50
2018-03-22T09:12:43.276Z,34.17
2018-03-22T09:15:11.430Z,35.67
2018-03-22T09:17:39.603Z,33.50
2018-03-22T09:20:07.739Z,37.07
2018-03-22T09:22:35.936Z,38.97
2018-03-22T09:25:04.061Z,34.83
2018-03-22T09:27:32.216Z,33.20
2018-03-22T09:30:00.359Z,40.30
2018-03-22T09:32:28.512Z,33.43
2018-03-22T09:34:56.669Z,31.57
2018-03-22T09:37:24.809Z,34.10
2018-03-22T09:39:52.929Z,32.00
2018-03-22T09:42:21.074Z,32.47
2018-03-22T09:44:49.211Z,31.67
2018-03-22T09:47:17.388Z,35.30
2018-03-22T09:49:45.539Z,34.60
2018-03-22T09:52:13.663Z,33.90
2018-03-22T09:54:41.812Z,31.80
2018-03-22T09:57:09.975Z,34.20
2018-03-22T09:59:38.094Z,30.13
2018-03-22T10:02:06.246Z,30.97
2018-03-22T10:04:34.379Z,30.80
2018-03-22T10:07:02.506Z,30.40
2018-03-22T10:09:30.627Z,30.07
2018-03-22T10:11:58.769Z,28.13
2018-03-22T10:14:26.917Z,29.77
2018-03-22T10:16:55.068Z,29.70
2018-03-22T10:19:23.216Z,28.83
2018-03-22T10:21:51.356Z,27.17
2018-03-22T10:24:19.498Z,27.90
2018-03-22T10:26:47.636Z,28.10
2018-03-22T10:29:15.791Z,25.63
2018-03-22T10:31:43.913Z,24.47
2018-03-22T10:34:12.078Z,25.73
2018-03-22T10:36:40.203Z,27.77
2018-03-22T10:39:08.367Z,27.77
2018-03-22T10:41:36.636Z,25.87
2018-03-22T10:44:08.200Z,27.40
2018-03-22T10:46:37.240Z,25.43
2018-03-22T10:49:05.422Z,24.87
2018-03-22T10:51:33.570Z,26.07
2018-03-22T10:54:01.702Z,26.93
2018-03-22T10:56:29.847Z,24.73
2018-03-22T10:58:57.965Z,26.03
2018-03-22T11:01:35.166Z,25.80
2018-03-22T11:04:08.280Z,24.83
2018-03-22T11:06:36.418Z,24.07
2018-03-22T11:09:05.321Z,27.77
2018-03-22T11:11:33.483Z,23.73
2018-03-22T11:14:01.628Z,23.50
2018-03-22T11:16:29.780Z,24.43
2018-03-22T11:18:57.961Z,25.67
2018-03-22T11:21:26.077Z,25.00
2018-03-22T11:23:54.230Z,22.60
2018-03-22T11:26:26.127Z,22.43
2018-03-22T11:28:54.258Z,27.13
2018-03-22T11:31:22.404Z,22.10
2018-03-22T11:33:50.594Z,23.20
2018-03-22T11:36:18.720Z,23.10
2018-03-22T11:38:46.875Z,25.60
2018-03-22T11:41:15.037Z,28.33
2018-03-22T11:43:43.184Z,25.87
2018-03-22T11:46:11.359Z,25.43
2018-03-22T11:48:39.503Z,23.30
2018-03-22T11:51:07.657Z,24.90
2018-03-22T11:53:35.934Z,26.63
2018-03-22T11:56:04.092Z,29.97
2018-03-22T11:58:32.246Z,27.10
2018-03-22T12:01:00.398Z,31.70
2018-03-22T12:03:28.582Z,30.93
2018-03-22T12:05:56.761Z,33.80
2018-03-22T12:08:24.892Z,29.83
2018-03-22T12:10:53.446Z,31.90
2018-03-22T12:13:21.650Z,32.70
2018-03-22T12:15:49.781Z,34.53
2018-03-22T12:18:17.917Z,37.53
2018-03-22T12:20:46.066Z,47.80
2018-03-22T12:23:14.237Z,40.07
2018-03-22T12:25:42.409Z,38.97
2018-03-22T12:28:10.577Z,44.40
2018-03-22T12:30:38.772Z,44.07
2018-03-22T12:33:06.934Z,39.57
2018-03-22T12:35:35.095Z,36.47
2018-03-22T12:38:03.239Z,34.70
2018-03-22T12:40:31.392Z,36.90
2018-03-22T12:42:59.550Z,36.17
2018-03-22T12:45:27.683Z,34.60
2018-03-22T12:47:55.851Z,40.10
2018-03-22T12:50:23.982Z,41.77
2018-03-22T12:52:52.130Z,43.13
2018-03-22T12:55:20.272Z,39.87
2018-03-22T12:57:48.414Z,32.13
2018-03-22T13:00:16.567Z,33.40
2018-03-22T13:02:44.808Z,34.83
2018-03-22T13:05:12.978Z,33.17
2018-03-22T13:07:41.106Z,34.70
2018-03-22T13:10:09.236Z,31.97
2018-03-22T13:12:37.417Z,32.13
2018-03-22T13:15:08.497Z,29.10
2018-03-22T13:17:36.656Z,32.70
2018-03-22T13:20:04.815Z,29.40
2018-03-22T13:22:32.966Z,32.27
2018-03-22T13:25:01.130Z,33.70
2018-03-22T13:27:29.384Z,29.67
2018-03-22T13:29:57.571Z,27.30
2018-03-22T13:32:25.675Z,28.77
2018-03-22T13:34:53.833Z,26.60
2018-03-22T13:37:21.972Z,25.03
2018-03-22T13:39:50.215Z,25.20
2018-03-22T13:42:18.345Z,26.97
2018-03-22T13:44:46.508Z,26.03
2018-03-22T13:47:14.633Z,24.40
2018-03-22T13:49:42.785Z,28.47
2018-03-22T13:52:10.956Z,27.67
2018-03-22T13:54:39.129Z,29.77
2018-03-22T13:57:07.299Z,25.90
2018-03-22T13:59:35.468Z,28.43
2018-03-22T14:02:03.599Z,28.30
2018-03-22T14:04:31.772Z,25.13
2018-03-22T14:06:59.950Z,31.03
2018-03-22T14:09:28.090Z,27.73
2018-03-22T14:11:56.208Z,30.23
2018-03-22T14:14:27.781Z,31.10
2018-03-22T14:16:55.929Z,29.90
2018-03-22T14:19:24.189Z,34.77
2018-03-22T14:21:52.310Z,31.07
2018-03-22T14:24:20.515Z,35.27
2018-03-22T14:26:48.680Z,31.27
2018-03-22T14:29:16.824Z,33.63
2018-03-22T14:31:44.992Z,32.70
2018-03-22T14:34:13.154Z,29.33
2018-03-22T14:36:41.305Z,30.53
2018-03-22T14:39:09.432Z,29.73
2018-03-22T14:41:37.589Z,30.60
2018-03-22T14:44:05.717Z,26.57
2018-03-22T14:46:33.878Z,34.33
2018-03-22T14:49:02.023Z,33.00
2018-03-22T14:51:30.185Z,24.77
2018-03-22T14:53:58.364Z,32.30
2018-03-22T14:56:26.514Z,31.73
2018-03-22T14:58:54.662Z,29.20
2018-03-22T15:01:22.805Z,27.87
2018-03-22T15:03:50.974Z,29.10
2018-03-22T15:06:19.191Z,34.97
2018-03-22T15:08:47.274Z,28.43
2018-03-22T15:11:15.396Z,29.40
2018-03-22T15:13:43.558Z,26.37
2018-03-22T15:16:11.716Z,32.67
2018-03-22T15:18:39.865Z,32.13
2018-03-22T15:21:08.008Z,33.87
2018-03-22T15:23:36.137Z,30.17
2018-03-22T15:26:04.312Z,34.13
2018-03-22T15:28:32.471Z,32.53
2018-03-22T15:31:00.677Z,35.93
2018-03-22T15:33:28.833Z,31.03
2018-03-22T15:35:56.963Z,26.27
2018-03-22T15:38:25.139Z,36.43
2018-03-22T15:40:53.831Z,28.83
2018-03-22T15:43:22.089Z,29.87
2018-03-22T15:45:50.247Z,27.37
2018-03-22T15:48:18.393Z,28.40
2018-03-22T15:50:46.538Z,30.63
2018-03-22T15:53:14.696Z,24.13
2018-03-22T15:55:42.842Z,26.30
2018-03-22T15:58:11.019Z,26.87
2018-03-22T16:00:39.149Z,23.47
2018-03-22T16:03:07.377Z,21.37
2018-03-22T16:05:35.570Z,21.23
2018-03-22T16:08:03.738Z,24.87
2018-03-22T16:10:31.878Z,23.90
2018-03-22T16:13:00.011Z,21.00
2018-03-22T16:15:28.158Z,12.40
2018-03-22T16:17:56.284Z,16.43
2018-03-22T16:20:24.407Z,13.43
2018-03-22T16:22:52.557Z,15.73
2018-03-22T16:25:20.971Z,11.20
2018-03-22T16:27:49.094Z,12.70
2018-03-22T16:30:17.233Z,12.00
2018-03-22T16:32:45.376Z,10.47
2018-03-22T16:35:13.524Z,12.40
2018-03-22T16:37:41.674Z,14.23
2018-03-22T16:40:09.820Z,9.93
2018-03-22T16:42:39.856Z,9.47
2018-03-22T16:45:08.044Z,8.00
2018-03-22T16:47:36.290Z,13.30
2018-03-22T16:50:04.420Z,9.40
2018-03-22T16:52:32.575Z,13.60
2018-03-22T16:55:00.734Z,12.00
2018-03-22T16:57:28.887Z,7.97
2018-03-22T16:59:57.066Z,7.80
2018-03-22T17:02:25.322Z,10.40
2018-03-22T17:04:57.062Z,10.70
2018-03-22T17:07:25.227Z,6.40
2018-03-22T17:09:53.371Z,9.87
2018-03-22T17:12:21.508Z,7.27
2018-03-22T17:14:49.778Z,8.43
2018-03-22T17:17:17.924Z,7.33
2018-03-22T17:19:46.063Z,7.37
2018-03-22T17:22:14.187Z,6.80
2018-03-22T17:24:42.335Z,8.63
2018-03-22T17:27:10.482Z,7.27
2018-03-22T17:29:38.622Z,11.07
2018-03-22T17:32:06.879Z,8.67
2018-03-22T17:34:35.000Z,10.00
2018-03-22T17:37:03.160Z,8.47
2018-03-22T17:39:31.323Z,11.60
2018-03-22T17:41:59.458Z,8.77
2018-03-22T17:44:27.597Z,6.20
2018-03-22T17:46:55.726Z,7.07
2018-03-22T17:49:23.874Z,12.90
2018-03-22T17:51:51.996Z,8.03
2018-03-22T17:54:20.161Z,11.50
2018-03-22T17:56:48.299Z,9.83
2018-03-22T17:59:16.459Z,11.13
2018-03-22T18:01:44.581Z,9.33
2018-03-22T18:04:12.715Z,13.13
2018-03-22T18:06:40.849Z,15.10
2018-03-22T18:09:08.992Z,10.17
2018-03-22T18:11:37.138Z,11.57
2018-03-22T18:14:05.336Z,16.20
2018-03-22T18:16:33.573Z,13.43
2018-03-22T18:19:01.707Z,11.53
2018-03-22T18:21:29.870Z,14.33
2018-03-22T18:23:57.992Z,13.27
2018-03-22T18:26:26.146Z,14.20
2018-03-22T18:28:54.276Z,13.10
2018-03-22T18:31:22.443Z,14.77
2018-03-22T18:33:50.588Z,16.43
2018-03-22T18:36:18.745Z,15.53
2018-03-22T18:38:46.881Z,20.17
2018-03-22T18:41:15.025Z,20.77
2018-03-22T18:43:43.168Z,22.07
2018-03-22T18:46:11.322Z,27.20
2018-03-22T18:48:39.477Z,25.57
2018-03-22T18:51:07.598Z,27.63
2018-03-22T18:53:35.747Z,33.20
2018-03-22T18:56:03.858Z,36.97
2018-03-22T18:58:32.011Z,28.60
2018-03-22T19:01:00.168Z,24.30
2018-03-22T19:03:28.310Z,28.83
2018-03-22T19:05:56.458Z,24.07
2018-03-22T19:08:24.570Z,24.97
2018-03-22T19:10:52.764Z,27.00
2018-03-22T19:13:20.962Z,24.57
2018-03-22T19:15:49.129Z,26.10
2018-03-22T19:18:17.269Z,30.77
2018-03-22T19:20:45.421Z,25.87
2018-03-22T19:23:13.548Z,31.57
2018-03-22T19:25:42.776Z,26.93
2018-03-22T19:28:10.919Z,32.67
2018-03-22T19:30:39.072Z,28.97
2018-03-22T19:33:07.224Z,31.73
2018-03-22T19:35:35.391Z,29.60
2018-03-22T19:38:03.530Z,27.50
2018-03-22T19:40:31.709Z,29.70
2018-03-22T19:42:59.846Z,30.13
2018-03-22T19:45:27.993Z,29.93
2018-03-22T19:47:56.136Z,29.67
2018-03-22T19:50:24.277Z,36.33
2018-03-22T19:52:52.413Z,31.63
2018-03-22T19:55:20.570Z,29.77
2018-03-22T19:57:48.694Z,33.30
2018-03-22T20:00:16.899Z,33.37
2018-03-22T20:02:45.013Z,30.60
2018-03-22T20:05:13.185Z,34.43
2018-03-22T20:07:44.277Z,35.80
2018-03-22T20:10:12.426Z,41.57
2018-03-22T20:12:40.557Z,39.40
2018-03-22T20:15:08.723Z,38.47
2018-03-22T20:17:36.863Z,41.97
2018-03-22T20:20:05.007Z,35.57
2018-03-22T20:22:33.177Z,40.33
2018-03-22T20:25:01.298Z,31.23
2018-03-22T20:27:29.444Z,25.60
2018-03-22T20:29:57.722Z,24.83
2018-03-22T20:32:25.860Z,27.23
2018-03-22T20:34:54.157Z,29.63
2018-03-22T20:37:22.331Z,29.93
2018-03-22T20:39:50.465Z,22.10
2018-03-22T20:42:18.599Z,27.17
2018-03-22T20:44:46.754Z,25.77
2018-03-22T20:47:14.886Z,23.53
2018-03-22T20:49:43.062Z,28.10
2018-03-22T20:52:11.206Z,25.53
2018-03-22T20:54:39.355Z,27.43
2018-03-22T20:57:07.486Z,24.60
2018-03-22T20:59:35.664Z,27.73
2018-03-22T21:02:03.821Z,27.43
2018-03-22T21:04:31.966Z,21.77
2018-03-22T21:07:00.135Z,27.93
2018-03-22T21:09:28.313Z,24.23
2018-03-22T21:11:56.554Z,32.43
2018-03-22T21:14:24.764Z,27.80
2018-03-22T21:16:52.902Z,31.57
2018-03-22T21:19:21.072Z,26.90
2018-03-22T21:21:49.191Z,29.07
2018-03-22T21:24:17.348Z,24.70
2018-03-22T21:26:45.482Z,24.80
2018-03-22T21:29:13.817Z,25.90
2018-03-22T21:31:42.763Z,34.17
2018-03-22T21:34:10.944Z,29.40
2018-03-22T21:36:39.150Z,27.43
2018-03-22T21:39:07.313Z,29.83
2018-03-22T21:41:35.450Z,35.07
2018-03-22T21:44:15.295Z,35.83
2018-03-22T21:46:43.509Z,36.10
2018-03-22T21:49:11.703Z,38.47
2018-03-22T21:51:40.554Z,38.87
2018-03-22T21:54:08.691Z,38.57
2018-03-22T21:56:36.864Z,47.30
2018-03-22T21:59:05.015Z,43.43
2018-03-22T22:01:33.281Z,40.80
2018-03-22T22:04:01.459Z,34.30
2018-03-22T22:06:29.621Z,42.73
2018-03-22T22:08:57.864Z,41.00
2018-03-22T22:11:25.999Z,40.03
2018-03-22T22:13:54.145Z,38.97
2018-03-22T22:16:22.289Z,43.07
2018-03-22T22:18:50.563Z,38.57
2018-03-22T22:21:18.703Z,35.43
2018-03-22T22:23:46.870Z,33.27
2018-03-22T22:26:15.829Z,44.97
2018-03-22T22:28:43.957Z,33.13
2018-03-22T22:31:12.110Z,33.17
2018-03-22T22:33:40.267Z,33.17
2018-03-22T22:36:08.535Z,35.90
2018-03-22T22:38:36.656Z,37.00
2018-03-22T22:41:04.811Z,36.23
2018-03-22T22:43:32.942Z,34.77
2018-03-22T22:46:01.090Z,36.10
2018-03-22T22:48:29.263Z,33.77
2018-03-22T22:50:57.439Z,30.83
2018-03-22T22:53:25.582Z,34.17
2018-03-22T22:55:53.826Z,33.83
2018-03-22T22:58:21.996Z,34.83
2018-03-22T23:00:50.305Z,37.23
2018-03-22T23:03:18.431Z,31.30
2018-03-22T23:05:46.559Z,31.63
2018-03-22T23:08:14.889Z,37.43
2018-03-22T23:10:43.072Z,33.73
2018-03-22T23:13:11.205Z,32.47
2018-03-22T23:15:39.352Z,29.37
2018-03-22T23:18:07.476Z,33.83
2018-03-22T23:20:35.773Z,29.83
2018-03-22T23:23:03.981Z,25.73
2018-03-22T23:25:32.129Z,34.60
2018-03-22T23:28:00.315Z,31.13
2018-03-22T23:30:28.475Z,31.53
2018-03-22T23:32:56.667Z,32.03
2018-03-22T23:35:24.774Z,32.30
2018-03-22T23:37:52.912Z,29.77
2018-03-22T23:40:21.084Z,27.53
2018-03-22T23:42:49.213Z,27.53
2018-03-22T23:45:17.363Z,26.17
2018-03-22T23:47:45.489Z,28.80
2018-03-22T23:50:14.281Z,31.57
2018-03-22T23:52:42.416Z,24.03
2018-03-22T23:55:10.547Z,28.97
2018-03-22T23:57:38.690Z,30.13
